Time;durP1;ratioP1;P1;durP2;ratioP2;P2;SDS_P1;SDS_P2;PMS_P1;PMS_P2;Temp;Humidity;BMP_temperature;BMP_pressure;BME280_temperature;BME280_humidity;BME280_pressure;Samples;Min_cycle;Max_cycle;Signal;HPM_P1;HPM_P2
2021/05/20 00:01:02;;;;;;;2.30;0.70;;;;;;;6.73;78.10;96901.56;3550276;40;20694;-74
2021/05/20 00:03:29;;;;;;;3.20;0.83;;;;;;;6.76;78.16;96901.41;3553814;40;20450;-73
2021/05/20 00:05:57;;;;;;;1.10;0.80;;;;;;;6.71;78.32;96895.59;3547775;40;20503;-73
2021/05/20 00:08:25;;;;;;;1.40;0.63;;;;;;;6.69;78.27;96884.41;3547677;40;21101;-74
2021/05/20 00:10:52;;;;;;;1.30;0.90;;;;;;;6.72;78.47;96900.72;3547403;40;20450;-74
2021/05/20 00:13:20;;;;;;;4.93;1.53;;;;;;;6.67;78.30;96907.06;3539473;40;20470;-76
2021/05/20 00:15:50;;;;;;;3.00;0.90;;;;;;;6.60;78.50;96903.91;3550028;40;20938;-74
2021/05/20 00:18:18;;;;;;;1.93;1.10;;;;;;;6.55;78.96;96900.69;3550327;40;20462;-74
2021/05/20 00:20:45;;;;;;;2.00;0.80;;;;;;;6.61;79.29;96907.38;3548434;40;20452;-74
2021/05/20 00:23:13;;;;;;;1.43;0.90;;;;;;;6.52;80.00;96885.22;3553328;40;20483;-74
2021/05/20 00:25:40;;;;;;;1.73;0.80;;;;;;;6.48;80.34;96883.69;3546138;40;20456;-74
2021/05/20 00:28:08;;;;;;;2.23;0.90;;;;;;;6.64;80.65;96904.59;3548441;40;20463;-74
2021/05/20 00:30:35;;;;;;;3.30;1.20;;;;;;;6.61;81.00;96897.78;3547548;40;20802;-74
2021/05/20 00:33:03;;;;;;;2.63;0.90;;;;;;;6.56;80.75;96901.53;3550890;40;20832;-75
2021/05/20 00:35:31;;;;;;;1.20;0.80;;;;;;;6.49;81.98;96903.59;3540913;40;20981;-74
2021/05/20 00:37:58;;;;;;;1.27;0.83;;;;;;;6.53;81.91;96910.34;3545406;40;20483;-74
2021/05/20 00:40:26;;;;;;;1.10;0.80;;;;;;;6.44;81.36;96906.41;3538857;40;20480;-74
2021/05/20 00:42:53;;;;;;;5.73;2.13;;;;;;;6.51;81.22;96913.00;3548365;40;20448;-74
2021/05/20 00:45:20;;;;;;;3.67;0.90;;;;;;;6.44;81.21;96914.19;3549160;40;20507;-74
2021/05/20 00:47:49;;;;;;;1.20;0.90;;;;;;;6.45;82.17;96913.31;3544889;40;20467;-74
2021/05/20 00:50:17;;;;;;;2.80;0.90;;;;;;;6.14;83.47;96911.28;3548464;40;20475;-73
2021/05/20 00:52:45;;;;;;;3.33;0.80;;;;;;;6.34;82.69;96908.59;3551667;40;20748;-75
2021/05/20 00:55:16;;;;;;;1.00;0.70;;;;;;;6.34;82.47;96910.34;3544909;40;20844;-74
2021/05/20 00:57:44;;;;;;;1.83;0.90;;;;;;;6.36;82.61;96918.94;3548017;40;20501;-74
2021/05/20 01:00:14;;;;;;;10.03;1.23;;;;;;;6.23;82.51;96917.81;3546343;40;20471;-74
2021/05/20 01:02:42;;;;;;;1.53;0.67;;;;;;;6.25;82.15;96919.44;3535538;40;20955;-74
2021/05/20 01:05:12;;;;;;;1.00;0.73;;;;;;;6.20;82.12;96918.81;3536294;40;20456;-74
2021/05/20 01:07:40;;;;;;;3.20;0.77;;;;;;;6.21;82.12;96915.28;3546974;40;20497;-74
2021/05/20 01:10:09;;;;;;;1.00;0.83;;;;;;;6.05;83.16;96922.94;3548409;40;20670;-74
2021/05/20 01:12:37;;;;;;;1.90;0.70;;;;;;;5.97;83.04;96924.22;3540847;40;20471;-74
2021/05/20 01:15:17;;;;;;;1.67;0.80;;;;;;;5.73;84.13;96919.16;3548311;40;20453;-75
2021/05/20 01:17:48;;;;;;;1.00;0.70;;;;;;;5.75;84.19;96923.38;3549144;40;21007;-74
2021/05/20 01:20:19;;;;;;;2.47;0.80;;;;;;;5.77;84.28;96925.06;3543281;40;20948;-73
2021/05/20 01:22:47;;;;;;;1.77;1.00;;;;;;;5.73;84.43;96924.38;3548232;40;20518;-73
2021/05/20 01:25:15;;;;;;;2.33;0.83;;;;;;;5.69;84.76;96923.66;3540968;40;20826;-72
2021/05/20 01:27:45;;;;;;;2.90;0.83;;;;;;;5.67;84.90;96924.63;3549798;40;20491;-74
2021/05/20 01:30:13;;;;;;;4.13;0.80;;;;;;;5.59;85.37;96927.56;3543440;40;20475;-74
2021/05/20 01:32:41;;;;;;;1.00;0.83;;;;;;;5.54;85.69;96925.16;3548570;40;20930;-74
2021/05/20 01:35:08;;;;;;;3.20;1.17;;;;;;;5.46;85.69;96931.59;3552704;40;20847;-75
2021/05/20 01:37:37;;;;;;;1.10;0.80;;;;;;;5.30;86.38;96931.41;3550324;40;20463;-75
2021/05/20 01:40:07;;;;;;;1.40;0.80;;;;;;;5.20;86.59;96910.19;3550553;40;20444;-75
2021/05/20 01:42:35;;;;;;;1.60;0.80;;;;;;;5.29;86.71;96930.56;3547767;40;20881;-75
2021/05/20 01:45:03;;;;;;;2.20;1.10;;;;;;;5.31;86.62;96925.28;3547591;40;20887;-71
2021/05/20 01:47:30;;;;;;;1.60;0.90;;;;;;;5.32;86.65;96924.41;3544171;40;20869;-73
2021/05/20 01:49:58;;;;;;;2.40;0.80;;;;;;;5.27;86.55;96934.13;3546448;40;20749;-72
2021/05/20 01:52:25;;;;;;;1.20;0.90;;;;;;;5.20;86.86;96930.97;3549130;40;20706;-73
2021/05/20 01:54:54;;;;;;;1.50;0.77;;;;;;;5.21;86.82;96934.38;3547908;40;20493;-73
2021/05/20 01:57:22;;;;;;;2.97;0.80;;;;;;;5.18;86.78;96927.59;3546331;40;20766;-73
2021/05/20 01:59:50;;;;;;;2.10;0.97;;;;;;;5.09;86.78;96931.38;3548341;40;20449;-73
2021/05/20 02:02:18;;;;;;;1.77;0.73;;;;;;;4.98;86.86;96937.94;3543834;40;20963;-72
2021/05/20 02:04:45;;;;;;;2.90;0.98;;;;;;;4.97;86.97;96947.47;3548806;40;20824;-73
2021/05/20 02:07:13;;;;;;;1.17;0.83;;;;;;;5.06;87.26;96938.50;3547985;40;20252;-72
2021/05/20 02:09:40;;;;;;;2.33;0.95;;;;;;;5.17;87.00;96941.47;3548582;40;20716;-72
2021/05/20 02:12:09;;;;;;;1.60;0.80;;;;;;;5.28;86.71;96939.25;3549399;40;20357;-73
2021/05/20 02:14:37;;;;;;;1.15;0.95;;;;;;;5.30;86.41;96942.63;3545447;40;20507;-74
2021/05/20 02:17:04;;;;;;;1.70;1.00;;;;;;;5.39;86.50;96945.75;3544749;40;20824;-73
2021/05/20 02:19:32;;;;;;;1.80;1.00;;;;;;;5.47;86.12;96946.25;3548767;40;20463;-76
2021/05/20 02:21:59;;;;;;;1.53;0.70;;;;;;;5.47;85.64;96933.28;3543103;40;20464;-74
2021/05/20 02:24:26;;;;;;;2.73;1.03;;;;;;;5.63;85.56;96944.72;3544348;40;20900;-74
2021/05/20 02:26:54;;;;;;;3.17;0.87;;;;;;;5.64;85.46;96940.34;3547828;40;20545;-74
2021/05/20 02:29:22;;;;;;;1.27;1.00;;;;;;;5.65;85.34;96942.88;3547910;40;20462;-74
2021/05/20 02:31:49;;;;;;;3.00;1.07;;;;;;;5.66;85.33;96941.97;3545346;40;20811;-74
2021/05/20 02:34:17;;;;;;;1.10;0.90;;;;;;;5.74;84.91;96947.69;3545105;40;20518;-73
2021/05/20 02:36:44;;;;;;;1.67;0.90;;;;;;;5.79;84.67;96946.63;3547552;40;20821;-74
2021/05/20 02:39:11;;;;;;;4.40;1.10;;;;;;;5.83;84.73;96948.19;3542012;40;20788;-73
2021/05/20 02:41:39;;;;;;;2.73;1.60;;;;;;;5.88;84.36;96948.81;3550497;40;20839;-75
2021/05/20 02:44:07;;;;;;;1.87;0.90;;;;;;;5.66;84.18;96907.34;3545404;40;20597;-73
2021/05/20 02:46:37;;;;;;;1.87;1.00;;;;;;;5.93;84.25;96947.69;3546753;40;20456;-72
2021/05/20 02:49:04;;;;;;;2.60;0.83;;;;;;;5.98;84.00;96944.06;3549252;40;20671;-72
2021/05/20 02:51:31;;;;;;;2.03;0.90;;;;;;;5.97;84.14;96951.03;3536807;40;20456;-72
2021/05/20 02:53:59;;;;;;;1.87;1.10;;;;;;;6.06;83.17;96953.25;3539772;40;20716;-73
2021/05/20 02:56:26;;;;;;;7.00;1.13;;;;;;;6.07;83.30;96956.69;3543606;40;20465;-72
2021/05/20 02:58:54;;;;;;;2.70;1.27;;;;;;;6.09;83.77;96960.03;3547454;40;20464;-74
2021/05/20 03:01:22;;;;;;;2.37;0.97;;;;;;;6.06;84.02;96958.44;3545449;40;20847;-74
2021/05/20 03:03:51;;;;;;;1.07;0.87;;;;;;;6.02;83.79;96949.09;3547189;40;20475;-73
2021/05/20 03:06:19;;;;;;;1.73;1.17;;;;;;;6.05;84.01;96951.53;3546316;40;20750;-75
2021/05/20 03:08:46;;;;;;;1.40;0.90;;;;;;;6.09;83.88;96963.47;3550580;40;20467;-73
2021/05/20 03:11:13;;;;;;;1.53;0.80;;;;;;;6.08;83.56;96956.63;3536109;40;20724;-73
2021/05/20 03:13:41;;;;;;;1.80;0.97;;;;;;;6.07;83.83;96962.72;3546874;40;20533;-73
2021/05/20 03:16:08;;;;;;;2.60;1.00;;;;;;;6.03;83.64;96966.38;3541404;40;20814;-73
2021/05/20 03:18:36;;;;;;;7.73;1.20;;;;;;;6.07;83.41;96967.91;3548114;40;20941;-72
2021/05/20 03:21:04;;;;;;;1.33;0.80;;;;;;;6.09;83.48;96968.69;3546158;40;20953;-73
2021/05/20 03:23:32;;;;;;;1.67;0.90;;;;;;;6.12;83.32;96971.16;3548930;40;20459;-76
2021/05/20 03:26:00;;;;;;;1.63;1.40;;;;;;;6.11;83.49;96966.84;3552125;40;20456;-72
2021/05/20 03:28:27;;;;;;;2.20;1.00;;;;;;;6.07;83.67;96969.69;3544817;40;20488;-74
2021/05/20 03:30:55;;;;;;;6.20;1.13;;;;;;;6.05;83.77;96967.13;3547915;40;21111;-73
2021/05/20 03:33:22;;;;;;;2.17;1.10;;;;;;;6.04;83.89;96969.84;3549075;40;20436;-73
2021/05/20 03:35:49;;;;;;;3.93;1.70;;;;;;;6.00;84.08;96969.13;3549199;40;20689;-73
2021/05/20 03:38:19;;;;;;;5.30;1.90;;;;;;;5.98;84.71;96970.06;3543343;40;20873;-74
2021/05/20 03:40:49;;;;;;;5.03;1.07;;;;;;;5.94;84.87;96961.56;3552994;40;20517;-74
2021/05/20 03:43:16;;;;;;;2.43;1.53;;;;;;;6.06;85.16;96974.03;3546205;40;20440;-74
2021/05/20 03:45:44;;;;;;;5.90;3.00;;;;;;;6.00;85.66;96981.25;3549257;40;20569;-73
2021/05/20 03:48:11;;;;;;;2.37;1.47;;;;;;;5.75;86.24;96949.38;3548713;40;20478;-73
2021/05/20 03:50:40;;;;;;;8.33;1.30;;;;;;;5.94;86.58;96975.41;3544920;40;20556;-73
2021/05/20 03:53:07;;;;;;;1.77;1.17;;;;;;;5.99;87.05;96979.59;3551501;40;20561;-72
2021/05/20 03:55:35;;;;;;;1.30;1.07;;;;;;;6.09;86.71;96986.06;3545574;40;20809;-72
2021/05/20 03:58:03;;;;;;;1.47;1.20;;;;;;;6.05;87.33;96982.75;3548272;40;20738;-72
2021/05/20 04:00:30;;;;;;;6.10;1.43;;;;;;;6.09;87.47;96984.28;3543357;40;20439;-73
2021/05/20 04:02:57;;;;;;;2.23;1.00;;;;;;;6.15;87.78;96988.38;3549309;40;20851;-73
2021/05/20 04:05:25;;;;;;;2.07;1.07;;;;;;;6.20;88.39;96985.59;3548309;40;20456;-73
2021/05/20 04:07:52;;;;;;;2.30;1.47;;;;;;;6.20;88.26;96990.78;3554093;40;20489;-74
2021/05/20 04:10:20;;;;;;;2.60;1.10;;;;;;;6.13;88.09;96987.59;3538612;40;20540;-74
2021/05/20 04:12:48;;;;;;;2.83;1.23;;;;;;;6.19;88.35;96983.88;3548154;40;20452;-73
2021/05/20 04:15:16;;;;;;;1.13;0.87;;;;;;;6.16;88.44;96986.63;3547581;40;20458;-73
2021/05/20 04:17:44;;;;;;;2.77;1.33;;;;;;;6.14;88.85;96984.94;3550566;40;20452;-73
2021/05/20 04:20:13;;;;;;;1.10;0.77;;;;;;;6.24;88.79;96987.13;3551439;40;20492;-73
2021/05/20 04:22:40;;;;;;;1.93;1.00;;;;;;;6.20;88.75;96985.59;3534231;40;20453;-75
2021/05/20 04:25:08;;;;;;;2.00;1.13;;;;;;;6.26;88.30;96982.69;3546880;40;20456;-74
2021/05/20 04:27:36;;;;;;;3.70;1.10;;;;;;;6.33;87.62;96979.75;3547767;40;20482;-76
2021/05/20 04:30:06;;;;;;;2.10;1.03;;;;;;;6.39;87.25;96991.66;3547300;40;20758;-75
2021/05/20 04:32:33;;;;;;;1.17;1.00;;;;;;;6.43;87.21;96989.72;3547222;40;20543;-74
2021/05/20 04:35:01;;;;;;;1.73;1.10;;;;;;;6.54;86.87;96987.47;3550236;40;20445;-74
2021/05/20 04:37:28;;;;;;;2.27;1.17;;;;;;;6.53;86.48;96978.84;3542242;40;21250;-74
2021/05/20 04:39:56;;;;;;;2.60;0.80;;;;;;;6.48;86.81;96982.56;3543381;40;20553;-75
2021/05/20 04:42:23;;;;;;;1.67;0.80;;;;;;;6.53;86.10;96984.03;3546322;40;20719;-74
2021/05/20 04:44:51;;;;;;;1.37;1.00;;;;;;;6.67;85.75;96991.19;3547914;40;20441;-73
2021/05/20 04:47:19;;;;;;;1.43;1.03;;;;;;;6.76;85.66;96984.69;3549646;40;20464;-73
2021/05/20 04:49:47;;;;;;;3.03;1.30;;;;;;;6.73;85.24;96995.28;3538337;40;20872;-75
2021/05/20 04:52:15;;;;;;;1.93;1.07;;;;;;;6.80;85.29;96991.47;3548372;40;20460;-74
2021/05/20 04:54:42;;;;;;;3.27;0.90;;;;;;;7.00;85.52;96992.25;3547426;40;20730;-77
2021/05/20 04:57:10;;;;;;;1.50;1.20;;;;;;;7.55;84.13;96979.13;3544968;40;20465;-76
2021/05/20 04:59:37;;;;;;;1.13;1.00;;;;;;;7.46;82.29;96998.66;3546752;40;20836;-73
2021/05/20 05:02:04;;;;;;;1.60;0.97;;;;;;;7.43;83.39;97005.78;3548147;40;20471;-74
2021/05/20 05:04:33;;;;;;;1.40;1.00;;;;;;;7.57;83.27;97012.94;3546167;40;20468;-74
2021/05/20 05:07:01;;;;;;;2.30;0.90;;;;;;;7.58;82.80;97020.66;3539230;40;20515;-73
2021/05/20 05:09:28;;;;;;;1.30;1.00;;;;;;;7.38;82.14;97018.22;3544810;40;20471;-75
2021/05/20 05:11:56;;;;;;;1.67;1.20;;;;;;;7.46;82.74;97026.50;3547131;40;20840;-73
2021/05/20 05:14:23;;;;;;;2.67;1.00;;;;;;;7.52;81.76;97023.56;3549867;40;20456;-72
2021/05/20 05:16:50;;;;;;;1.30;0.90;;;;;;;7.65;81.70;97023.81;3544998;40;20523;-74
2021/05/20 05:19:18;;;;;;;3.23;1.10;;;;;;;7.57;81.51;97024.22;3541649;40;20843;-73
2021/05/20 05:21:47;;;;;;;2.30;1.00;;;;;;;7.72;81.36;97028.66;3543378;40;20546;-74
2021/05/20 05:24:14;;;;;;;1.00;0.83;;;;;;;7.91;82.26;97032.91;3541287;40;20723;-73
2021/05/20 05:26:42;;;;;;;2.33;1.20;;;;;;;8.06;80.69;97039.97;3536176;40;20776;-74
2021/05/20 05:29:09;;;;;;;2.10;0.87;;;;;;;7.95;80.78;97036.22;3546834;40;20699;-73
2021/05/20 05:31:36;;;;;;;1.47;1.03;;;;;;;7.85;80.98;97041.91;3548603;40;20941;-75
2021/05/20 05:34:04;;;;;;;10.03;6.07;;;;;;;7.81;81.57;97029.09;3546973;40;20724;-71
2021/05/20 05:36:32;;;;;;;26.57;12.73;;;;;;;7.53;81.72;97009.66;3545667;40;20899;-75
2021/05/20 05:39:00;;;;;;;1.33;0.90;;;;;;;7.84;81.24;97047.19;3551035;40;20961;-74
2021/05/20 05:41:28;;;;;;;1.80;1.30;;;;;;;7.94;81.31;97048.44;3543605;40;20487;-73
2021/05/20 05:43:55;;;;;;;2.60;1.00;;;;;;;7.84;81.83;97036.75;3553669;40;20466;-71
2021/05/20 05:46:22;;;;;;;1.13;0.90;;;;;;;8.12;81.03;97047.47;3544445;40;20723;-74
2021/05/20 05:48:52;;;;;;;1.30;1.00;;;;;;;8.37;80.23;97055.78;3534945;40;20853;-73
2021/05/20 05:51:21;;;;;;;2.10;1.20;;;;;;;8.41;79.63;97047.75;3547389;40;20784;-74
2021/05/20 05:53:49;;;;;;;1.20;0.90;;;;;;;8.52;79.70;97060.22;3547465;40;21084;-73
2021/05/20 05:56:18;;;;;;;2.40;1.23;;;;;;;8.69;79.06;97056.72;3545819;40;20483;-74
2021/05/20 05:58:45;;;;;;;1.67;1.30;;;;;;;8.73;78.64;97065.22;3538107;40;20473;-74
2021/05/20 06:01:13;;;;;;;2.27;1.47;;;;;;;8.69;79.31;97054.94;3547308;40;20873;-74
2021/05/20 06:03:40;;;;;;;3.00;1.60;;;;;;;8.63;77.29;97062.28;3550201;40;20866;-73
2021/05/20 06:06:08;;;;;;;1.30;1.17;;;;;;;8.52;78.91;97065.44;3549809;40;20467;-73
2021/05/20 06:08:37;;;;;;;7.33;1.80;;;;;;;8.82;78.09;97065.56;3550914;40;20730;-73
2021/05/20 06:11:04;;;;;;;4.17;1.30;;;;;;;8.74;78.34;97075.56;3539873;40;20515;-73
2021/05/20 06:13:33;;;;;;;1.90;1.23;;;;;;;8.61;78.14;97069.34;3544439;40;20451;-72
2021/05/20 06:16:00;;;;;;;11.40;5.70;;;;;;;8.64;77.60;97072.59;3544766;40;20471;-74
2021/05/20 06:18:28;;;;;;;7.37;2.10;;;;;;;8.71;76.87;97071.38;3549789;40;20469;-73
2021/05/20 06:20:55;;;;;;;2.60;1.50;;;;;;;8.97;76.63;97076.94;3547050;40;20526;-75
2021/05/20 06:23:23;;;;;;;1.20;1.10;;;;;;;8.86;75.97;97061.00;3546996;40;20466;-74
2021/05/20 06:25:54;;;;;;;3.00;1.30;;;;;;;8.89;76.29;97072.13;3551821;40;20461;-74
2021/05/20 06:28:21;;;;;;;1.50;1.10;;;;;;;8.93;76.09;97071.97;3549147;40;20488;-74
2021/05/20 06:30:49;;;;;;;2.27;1.30;;;;;;;8.94;76.47;97073.66;3547352;40;20607;-74
2021/05/20 06:33:20;;;;;;;3.30;1.40;;;;;;;8.85;76.12;97081.06;3548033;40;20470;-72
2021/05/20 06:35:47;;;;;;;1.50;1.40;;;;;;;8.86;76.76;97088.00;3537300;40;20467;-74
2021/05/20 06:38:15;;;;;;;4.63;1.47;;;;;;;9.01;77.42;97085.47;3551963;40;21158;-75
2021/05/20 06:40:43;;;;;;;1.77;1.30;;;;;;;9.25;77.11;97085.88;3549784;40;20670;-73
2021/05/20 06:43:10;;;;;;;2.93;1.63;;;;;;;9.24;75.93;97079.81;3543653;40;20505;-74
2021/05/20 06:45:37;;;;;;;2.00;1.17;;;;;;;9.38;75.28;97088.66;3545895;40;20462;-73
2021/05/20 06:48:06;;;;;;;1.70;1.10;;;;;;;9.42;73.87;97082.31;3548886;40;20459;-74
2021/05/20 06:50:34;;;;;;;2.53;1.20;;;;;;;9.16;74.29;97087.22;3547979;40;20906;-74
2021/05/20 06:53:01;;;;;;;2.83;1.20;;;;;;;9.25;73.92;97088.47;3547653;40;21203;-73
2021/05/20 06:55:30;;;;;;;1.40;1.30;;;;;;;9.29;73.87;97087.38;3545295;40;20476;-74
2021/05/20 07:00:43;;;;;;;1.83;1.17;;;;;;;9.56;72.24;97092.00;3546131;40;20468;-73
2021/05/20 07:03:15;;;;;;;1.83;1.30;;;;;;;9.52;72.57;97083.47;3548239;40;20692;-72
2021/05/20 07:05:43;;;;;;;1.43;1.10;;;;;;;9.26;73.71;97101.47;3548801;40;20545;-73
2021/05/20 07:08:12;;;;;;;2.10;1.30;;;;;;;9.43;72.72;97097.09;3544355;40;20447;-74
2021/05/20 07:10:39;;;;;;;9.90;1.20;;;;;;;9.49;73.18;97091.50;3545493;40;20586;-75
2021/05/20 07:13:07;;;;;;;1.73;1.10;;;;;;;9.58;71.77;97093.56;3545970;40;20444;-74
2021/05/20 07:15:34;;;;;;;2.17;1.00;;;;;;;9.60;73.15;97098.72;3545676;40;20448;-74
2021/05/20 07:18:01;;;;;;;2.03;1.23;;;;;;;10.01;72.64;97098.94;3549245;40;20767;-74
2021/05/20 07:20:30;;;;;;;2.90;1.20;;;;;;;10.14;72.35;97093.03;3553258;40;20444;-73
2021/05/20 07:22:57;;;;;;;1.90;1.23;;;;;;;10.27;71.26;97097.44;3547371;40;20948;-73
2021/05/20 07:25:25;;;;;;;2.23;1.00;;;;;;;10.78;70.35;97097.00;3547738;40;20860;-75
2021/05/20 07:27:52;;;;;;;5.60;1.30;;;;;;;11.34;68.33;97098.78;3548269;40;20932;-72
2021/05/20 07:30:20;;;;;;;2.90;0.80;;;;;;;11.46;68.65;97100.59;3549944;40;20857;-74
2021/05/20 07:32:47;;;;;;;1.20;0.80;;;;;;;10.70;69.12;97083.53;3550579;40;20452;-74
2021/05/20 07:35:16;;;;;;;2.43;0.90;;;;;;;11.20;68.71;97105.75;3543361;40;20452;-74
2021/05/20 07:37:44;;;;;;;1.20;0.80;;;;;;;10.79;69.38;97109.16;3547101;40;20472;-74
2021/05/20 07:40:12;;;;;;;8.00;4.23;;;;;;;10.77;69.36;97113.66;3544911;40;21178;-73
2021/05/20 07:42:40;;;;;;;3.13;1.30;;;;;;;10.56;69.24;97110.56;3542471;40;20938;-74
2021/05/20 07:45:10;;;;;;;1.30;1.00;;;;;;;10.45;69.00;97108.59;3546810;40;21131;-75
2021/05/20 07:47:38;;;;;;;2.30;0.90;;;;;;;10.84;68.94;97112.34;3551162;40;20814;-73
2021/05/20 07:50:07;;;;;;;3.03;1.00;;;;;;;11.16;68.49;97114.75;3538867;40;20989;-75
2021/05/20 07:52:35;;;;;;;3.67;0.93;;;;;;;10.92;68.85;97088.28;3544542;40;20853;-75
2021/05/20 07:55:03;;;;;;;3.50;1.20;;;;;;;10.94;67.34;97115.25;3550849;40;20868;-73
2021/05/20 07:57:31;;;;;;;3.57;1.20;;;;;;;10.95;68.12;97116.91;3545289;40;20933;-75
2021/05/20 07:59:58;;;;;;;1.27;1.17;;;;;;;10.95;67.45;97110.84;3538592;40;20483;-74
2021/05/20 08:02:35;;;;;;;1.77;0.90;;;;;;;11.35;66.91;97116.19;3544719;40;21002;-76
2021/05/20 08:05:06;;;;;;;1.30;0.87;;;;;;;11.74;65.54;97110.19;3545755;40;20790;-74
2021/05/20 08:07:43;;;;;;;3.07;0.90;;;;;;;11.68;64.76;97118.41;3549562;40;20481;-74
2021/05/20 08:12:53;;;;;;;2.27;0.90;;;;;;;10.78;66.47;97106.63;3532368;40;21101;-74
2021/05/20 08:15:21;;;;;;;1.67;0.90;;;;;;;10.72;66.78;97115.69;3542328;40;20483;-75
2021/05/20 08:17:52;;;;;;;1.20;0.93;;;;;;;10.44;67.81;97114.75;3547489;40;20541;-72
2021/05/20 08:20:19;;;;;;;1.13;0.90;;;;;;;10.71;66.47;97121.06;3544097;40;20867;-73
2021/05/20 08:22:47;;;;;;;1.20;0.80;;;;;;;11.05;66.36;97106.69;3545597;40;20809;-74
2021/05/20 08:25:17;;;;;;;1.00;0.87;;;;;;;10.87;66.13;97098.22;3551799;40;20932;-73
2021/05/20 08:27:45;;;;;;;1.93;1.10;;;;;;;11.28;65.56;97100.84;3551791;40;20747;-74
2021/05/20 08:30:14;;;;;;;6.30;1.23;;;;;;;11.04;65.77;97084.91;3544570;40;20521;-75
2021/05/20 08:32:41;;;;;;;2.93;1.13;;;;;;;11.77;64.05;97103.88;3547618;40;20557;-75
2021/05/20 08:35:10;;;;;;;2.13;1.10;;;;;;;11.78;63.43;97108.16;3547207;40;20850;-73
2021/05/20 08:37:38;;;;;;;2.50;1.10;;;;;;;12.29;62.61;97103.06;3539045;40;20936;-74
2021/05/20 08:40:07;;;;;;;1.80;1.00;;;;;;;12.13;62.55;97102.41;3543620;40;20458;-74
2021/05/20 08:42:35;;;;;;;1.17;0.80;;;;;;;12.34;61.25;97100.94;3549004;40;20733;-74
2021/05/20 08:45:11;;;;;;;1.87;0.90;;;;;;;11.73;62.08;97108.47;3552057;40;20820;-73
2021/05/20 08:47:38;;;;;;;1.30;0.80;;;;;;;11.95;62.06;97105.31;3550367;40;20832;-73
2021/05/20 08:50:08;;;;;;;1.50;0.80;;;;;;;12.27;61.47;97099.72;3547281;40;20444;-72
2021/05/20 08:52:37;;;;;;;1.47;0.90;;;;;;;12.32;60.56;97110.72;3549840;40;20902;-73
2021/05/20 08:55:06;;;;;;;1.63;0.97;;;;;;;12.27;60.78;97110.22;3550850;40;20486;-73
2021/05/20 08:57:35;;;;;;;1.00;0.80;;;;;;;12.48;61.29;97109.69;3546789;40;20455;-73
2021/05/20 09:00:05;;;;;;;2.93;0.80;;;;;;;12.34;60.10;97106.22;3548806;40;20901;-74
2021/05/20 09:02:32;;;;;;;2.53;1.00;;;;;;;12.50;60.65;97105.16;3546608;40;20489;-73
2021/05/20 09:05:03;;;;;;;6.93;1.00;;;;;;;12.37;62.53;97103.38;3549844;40;20530;-73
2021/05/20 09:07:33;;;;;;;1.27;1.03;;;;;;;12.78;62.09;97096.19;3545223;40;20456;-73
2021/05/20 09:10:22;;;;;;;1.00;0.80;;;;;;;13.06;61.14;97100.38;3543817;40;20530;-73
2021/05/20 09:12:52;;;;;;;2.23;1.00;;;;;;;13.18;59.98;97098.66;3533115;40;20481;-74
2021/05/20 09:15:23;;;;;;;5.13;1.80;;;;;;;13.35;60.58;97108.00;3538292;40;20465;-74
2021/05/20 09:17:52;;;;;;;4.10;2.20;;;;;;;13.52;59.46;97102.34;3546441;40;20490;-74
2021/05/20 09:20:21;;;;;;;1.87;1.00;;;;;;;13.84;58.65;97105.28;3549035;40;20469;-73
2021/05/20 09:23:03;;;;;;;0.90;0.70;;;;;;;13.70;58.39;97105.47;3542988;40;20817;-74
2021/05/20 09:25:32;;;;;;;1.93;0.90;;;;;;;13.67;58.94;97102.22;3549945;40;20445;-74
2021/05/20 09:28:01;;;;;;;1.00;0.90;;;;;;;13.20;58.44;97104.66;3535216;40;20487;-75
2021/05/20 09:30:30;;;;;;;2.73;1.13;;;;;;;13.03;58.99;97108.47;3537625;40;20483;-75
2021/05/20 09:32:59;;;;;;;2.27;1.20;;;;;;;13.41;57.75;97105.78;3548213;40;20436;-74
2021/05/20 09:35:28;;;;;;;4.40;1.00;;;;;;;13.61;56.86;97099.06;3548896;40;20455;-73
2021/05/20 09:38:01;;;;;;;4.47;0.83;;;;;;;13.66;55.52;97103.97;3546158;40;20798;-75
2021/05/20 09:40:31;;;;;;;1.20;0.80;;;;;;;13.08;57.97;97095.84;3545419;40;20769;-73
2021/05/20 09:43:00;;;;;;;0.90;0.60;;;;;;;14.36;54.32;97097.03;3549124;40;20475;-75
2021/05/20 09:45:28;;;;;;;0.90;0.70;;;;;;;14.98;51.50;97090.53;3540489;40;21165;-77
2021/05/20 09:48:04;;;;;;;4.57;0.70;;;;;;;14.63;50.20;97094.94;3548614;40;20813;-73
2021/05/20 09:50:37;;;;;;;1.43;0.70;;;;;;;14.58;52.93;97097.13;3541210;40;20819;-72
2021/05/20 09:53:09;;;;;;;0.80;0.50;;;;;;;15.27;49.27;97088.22;3547083;40;20443;-72
2021/05/20 09:55:43;;;;;;;0.93;0.60;;;;;;;15.79;47.88;97084.00;3535919;40;20450;-74
2021/05/20 09:58:11;;;;;;;2.13;0.70;;;;;;;15.91;47.25;97039.91;3546188;40;20892;-77
2021/05/20 10:00:39;;;;;;;1.23;0.60;;;;;;;16.78;45.37;97081.88;3545798;40;21096;-74
2021/05/20 10:03:09;;;;;;;1.00;0.80;;;;;;;16.02;47.32;97081.28;3546898;40;20459;-75
2021/05/20 10:05:38;;;;;;;2.90;0.70;;;;;;;16.38;46.84;97072.03;3544880;40;20843;-75
2021/05/20 10:08:07;;;;;;;0.83;0.60;;;;;;;15.50;43.58;97075.78;3544660;40;20851;-77
2021/05/20 10:10:37;;;;;;;0.80;0.50;;;;;;;14.84;46.64;97057.34;3541993;40;20643;-75
2021/05/20 10:13:07;;;;;;;1.20;0.53;;;;;;;15.18;46.51;97065.22;3550644;40;20812;-75
2021/05/20 10:15:36;;;;;;;1.20;0.60;;;;;;;16.80;45.36;97061.41;3545554;40;20849;-76
2021/05/20 10:18:05;;;;;;;2.67;0.63;;;;;;;16.93;42.88;97063.84;3546764;40;20468;-76
2021/05/20 10:20:34;;;;;;;0.93;0.67;;;;;;;15.65;45.87;97059.69;3541929;40;20483;-76
2021/05/20 10:23:06;;;;;;;2.50;0.63;;;;;;;15.91;45.89;97068.94;3545098;40;20432;-76
2021/05/20 10:25:35;;;;;;;1.70;0.57;;;;;;;15.37;47.51;97065.41;3545789;40;20493;-75
2021/05/20 10:28:03;;;;;;;3.57;0.67;;;;;;;15.48;47.02;97069.78;3548593;40;20784;-76
2021/05/20 10:30:32;;;;;;;2.50;0.70;;;;;;;15.63;47.35;97065.09;3545184;40;20483;-77
2021/05/20 10:33:00;;;;;;;1.20;0.60;;;;;;;16.20;46.01;97063.03;3547829;40;20726;-76
2021/05/20 10:35:42;;;;;;;3.73;0.70;;;;;;;16.10;44.31;97062.16;3540942;40;20475;-74
2021/05/20 10:38:10;;;;;;;0.90;0.60;;;;;;;16.72;41.65;97058.59;3546278;40;20894;-76
2021/05/20 10:40:38;;;;;;;0.90;0.67;;;;;;;16.17;40.33;97050.06;3546224;40;20822;-75
2021/05/20 10:43:08;;;;;;;0.97;0.67;;;;;;;16.67;42.53;97044.09;3538959;40;20478;-75
2021/05/20 10:45:37;;;;;;;0.83;0.60;;;;;;;16.91;44.06;97043.78;3547262;40;20491;-76
2021/05/20 10:48:19;;;;;;;1.07;0.60;;;;;;;17.00;43.35;97046.47;3546124;40;20464;-76
2021/05/20 10:51:03;;;;;;;2.13;0.90;;;;;;;17.73;43.84;97047.97;3540593;40;20476;-74
2021/05/20 10:53:46;;;;;;;1.03;0.70;;;;;;;16.19;47.20;97050.78;3547955;40;20462;-74
2021/05/20 10:56:52;;;;;;;1.27;0.70;;;;;;;16.55;47.76;97038.06;3541376;40;20820;-75
2021/05/20 10:59:44;;;;;;;0.80;0.60;;;;;;;15.21;48.20;97004.25;3532649;40;20954;-75
2021/05/20 11:02:54;;;;;;;1.20;0.80;;;;;;;14.52;49.34;97036.91;3542270;40;20475;-75
2021/05/20 11:05:56;;;;;;;1.00;0.70;;;;;;;14.13;49.96;97040.84;3546251;40;20907;-74
2021/05/20 11:08:56;;;;;;;2.13;0.70;;;;;;;14.44;50.01;97040.19;3542841;40;20455;-76
2021/05/20 11:11:56;;;;;;;1.10;0.70;;;;;;;14.93;47.01;97037.31;3544371;40;20511;-76
2021/05/20 11:14:40;;;;;;;2.80;0.80;;;;;;;16.80;43.15;97029.69;3544878;40;20758;-77
2021/05/20 11:17:38;;;;;;;1.13;0.70;;;;;;;18.24;41.61;97017.69;3545427;40;20711;-76
2021/05/20 11:20:40;;;;;;;4.10;0.80;;;;;;;17.04;43.12;97015.31;3518699;40;20501;-77
2021/05/20 11:23:29;;;;;;;1.37;0.80;;;;;;;15.23;45.63;97010.28;3542535;40;21082;-76
2021/05/20 11:26:17;;;;;;;1.50;0.70;;;;;;;15.86;43.77;97015.69;3547757;40;20859;-76
2021/05/20 11:29:09;;;;;;;2.40;0.73;;;;;;;16.00;43.67;97015.38;3551892;40;20475;-75
2021/05/20 11:31:36;;;;;;;0.80;0.60;;;;;;;15.46;44.21;97012.84;3546747;40;20543;-75
2021/05/20 11:34:23;;;;;;;1.67;1.03;;;;;;;15.38;44.64;97016.09;3537837;40;20700;-77
2021/05/20 11:36:52;;;;;;;4.00;0.80;;;;;;;14.99;46.05;97007.81;3543607;40;20849;-77
2021/05/20 11:39:22;;;;;;;0.97;0.70;;;;;;;14.69;46.81;96998.75;3543326;40;20829;-76
2021/05/20 11:41:51;;;;;;;0.80;0.67;;;;;;;15.05;45.86;97011.75;3540769;40;20867;-77
2021/05/20 11:44:20;;;;;;;0.80;0.60;;;;;;;14.62;47.81;97013.34;3545332;40;20833;-76
2021/05/20 11:47:04;;;;;;;4.77;2.20;;;;;;;14.30;48.33;97005.31;3552359;40;20452;-77
2021/05/20 11:49:32;;;;;;;10.40;4.83;;;;;;;14.04;49.45;97022.16;3545377;40;20462;-76
2021/05/20 11:52:07;;;;;;;1.43;0.60;;;;;;;13.99;48.90;97013.75;3547295;40;20558;-77
2021/05/20 11:54:37;;;;;;;2.97;0.97;;;;;;;14.21;48.85;97012.97;3544612;40;20896;-76
2021/05/20 11:57:07;;;;;;;2.07;0.73;;;;;;;14.27;49.33;97009.03;3550839;40;20852;-76